createdAt,value
2018-08-17T00:01:06.906Z,100608.00
2018-08-17T00:03:36.711Z,100608.00
2018-08-17T00:06:06.867Z,100605.00
2018-08-17T00:08:36.862Z,100603.00
2018-08-17T00:11:07.016Z,100605.00
2018-08-17T00:13:36.936Z,100604.00
2018-08-17T00:16:07.233Z,100602.00
2018-08-17T00:18:37.446Z,100600.00
2018-08-17T00:21:07.685Z,100596.00
2018-08-17T00:23:37.751Z,100595.00
2018-08-17T00:26:07.794Z,100596.00
2018-08-17T00:28:37.749Z,100597.00
2018-08-17T00:31:07.751Z,100593.00
2018-08-17T00:33:37.583Z,100587.00
2018-08-17T00:36:07.312Z,100582.00
2018-08-17T00:38:37.327Z,100581.00
2018-08-17T00:41:07.470Z,100578.00
2018-08-17T00:43:37.586Z,100585.00
2018-08-17T00:46:08.408Z,100588.00
2018-08-17T00:48:38.434Z,100584.00
2018-08-17T00:51:08.956Z,100586.00
2018-08-17T00:53:39.271Z,100582.00
2018-08-17T00:56:09.210Z,100586.00
2018-08-17T00:58:39.237Z,100587.00
2018-08-17T01:01:09.326Z,100584.00
2018-08-17T01:03:39.798Z,100577.00
2018-08-17T01:06:09.680Z,100588.00
2018-08-17T01:08:39.663Z,100586.00
2018-08-17T01:11:09.632Z,100592.00
2018-08-17T01:13:39.383Z,100595.00
2018-08-17T01:16:09.462Z,100603.00
2018-08-17T01:18:39.408Z,100604.00
2018-08-17T01:21:09.436Z,100607.00
2018-08-17T01:23:39.802Z,100609.00
2018-08-17T01:26:09.821Z,100619.00
2018-08-17T01:28:39.612Z,100613.00
2018-08-17T01:31:09.546Z,100609.00
2018-08-17T01:33:40.571Z,100608.00
2018-08-17T01:36:11.757Z,100614.00
2018-08-17T01:38:41.599Z,100611.00
2018-08-17T01:41:11.407Z,100615.00
2018-08-17T01:43:41.384Z,100620.00
2018-08-17T01:46:11.400Z,100625.00
2018-08-17T01:48:41.362Z,100634.00
2018-08-17T01:51:11.286Z,100636.00
2018-08-17T01:53:41.141Z,100639.00
2018-08-17T01:56:11.146Z,100642.00
2018-08-17T01:58:41.131Z,100645.00
2018-08-17T02:01:11.139Z,100643.00
2018-08-17T02:03:41.220Z,100652.00
2018-08-17T02:06:11.169Z,100652.00
2018-08-17T02:08:41.146Z,100653.00
2018-08-17T02:11:11.047Z,100661.00
2018-08-17T02:13:40.996Z,100664.00
2018-08-17T02:16:11.035Z,100666.00
2018-08-17T02:18:40.887Z,100660.00
2018-08-17T02:21:10.844Z,100666.00
2018-08-17T02:23:40.812Z,100668.00
2018-08-17T02:26:10.895Z,100670.00
2018-08-17T02:28:40.698Z,100676.00
2018-08-17T02:31:11.710Z,100684.00
2018-08-17T02:38:39.656Z,100694.00
2018-08-17T02:41:09.485Z,100693.00
2018-08-17T02:43:39.624Z,100694.00
2018-08-17T02:46:09.521Z,100703.00
2018-08-17T02:48:42.274Z,100709.00
2018-08-17T02:51:12.395Z,100717.00
2018-08-17T02:53:42.282Z,100718.00
2018-08-17T02:56:12.170Z,100719.00
2018-08-17T02:58:42.003Z,100730.00
2018-08-17T03:01:11.974Z,100736.00
2018-08-17T03:03:41.717Z,100735.00
2018-08-17T03:06:11.630Z,100728.00
2018-08-17T03:08:41.487Z,100734.00
2018-08-17T03:11:11.660Z,100735.00
2018-08-17T03:13:41.578Z,100735.00
2018-08-17T03:16:11.885Z,100733.00
2018-08-17T03:18:41.921Z,100731.00
2018-08-17T03:21:11.826Z,100736.00
2018-08-17T03:29:43.155Z,100745.00
2018-08-17T03:32:14.132Z,100737.00
2018-08-17T03:34:44.901Z,100732.00
2018-08-17T03:37:15.006Z,100732.00
2018-08-17T03:39:44.963Z,100727.00
2018-08-17T03:42:14.971Z,100735.00
2018-08-17T03:44:44.879Z,100738.00
2018-08-17T03:47:14.828Z,100739.00
2018-08-17T03:49:44.729Z,100737.00
2018-08-17T03:52:14.646Z,100738.00
2018-08-17T03:54:44.542Z,100732.00
2018-08-17T03:57:14.505Z,100737.00
2018-08-17T03:59:44.376Z,100744.00
2018-08-17T04:02:14.255Z,100744.00
2018-08-17T04:04:44.099Z,100746.00
2018-08-17T04:07:13.990Z,100744.00
2018-08-17T04:09:43.867Z,100745.00
2018-08-17T04:12:13.879Z,100756.00
2018-08-17T04:14:43.696Z,100766.00
2018-08-17T04:17:13.677Z,100773.00
2018-08-17T04:19:43.450Z,100769.00
2018-08-17T04:22:13.386Z,100764.00
2018-08-17T04:24:43.082Z,100769.00
2018-08-17T04:27:13.027Z,100767.00
2018-08-17T04:29:43.021Z,100769.00
2018-08-17T04:32:12.724Z,100764.00
2018-08-17T04:34:42.735Z,100760.00
2018-08-17T04:37:12.500Z,100761.00
2018-08-17T04:39:42.428Z,100766.00
2018-08-17T04:42:12.270Z,100773.00
2018-08-17T04:44:42.291Z,100780.00
2018-08-17T04:47:12.126Z,100776.00
2018-08-17T04:49:42.120Z,100794.00
2018-08-17T04:52:12.155Z,100791.00
2018-08-17T04:54:41.952Z,100796.00
2018-08-17T04:57:11.865Z,100792.00
2018-08-17T04:59:41.849Z,100789.00
2018-08-17T05:02:11.851Z,100798.00
2018-08-17T05:04:41.781Z,100809.00
2018-08-17T05:07:12.646Z,100812.00
2018-08-17T05:09:42.605Z,100820.00
2018-08-17T05:12:12.460Z,100831.00
2018-08-17T05:14:42.290Z,100833.00
2018-08-17T05:17:12.293Z,100835.00
2018-08-17T05:19:42.170Z,100838.00
2018-08-17T05:22:12.108Z,100844.00
2018-08-17T05:24:42.001Z,100846.00
2018-08-17T05:27:11.933Z,100849.00
2018-08-17T05:29:41.581Z,100853.00
2018-08-17T05:32:11.657Z,100862.00
2018-08-17T05:34:42.222Z,100861.00
2018-08-17T05:37:12.212Z,100870.00
2018-08-17T05:39:42.090Z,100869.00
2018-08-17T05:42:11.901Z,100878.00
2018-08-17T05:44:41.961Z,100894.00
2018-08-17T05:47:11.815Z,100911.00
2018-08-17T05:49:41.868Z,100908.00
2018-08-17T05:52:11.836Z,100910.00
2018-08-17T05:54:41.436Z,100920.00
2018-08-17T05:57:11.382Z,100929.00
2018-08-17T05:59:41.300Z,100921.00
2018-08-17T06:02:11.291Z,100906.00
2018-08-17T06:04:41.348Z,100894.00
2018-08-17T06:07:11.263Z,100900.00
2018-08-17T06:09:41.095Z,100896.00
2018-08-17T06:12:10.946Z,100890.00
2018-08-17T06:14:40.909Z,100892.00
2018-08-17T06:17:10.871Z,100875.00
2018-08-17T06:19:40.642Z,100885.00
2018-08-17T06:22:10.602Z,100904.00
2018-08-17T06:24:40.556Z,100910.00
2018-08-17T06:27:10.233Z,100912.00
2018-08-17T06:29:40.068Z,100914.00
2018-08-17T06:32:10.781Z,100923.00
2018-08-17T06:39:33.319Z,100950.00
2018-08-17T06:42:03.233Z,100967.00
2018-08-17T06:44:33.125Z,100979.00
2018-08-17T06:47:03.154Z,100990.00
2018-08-17T06:49:33.069Z,100994.00
2018-08-17T06:52:03.054Z,100997.00
2018-08-17T06:54:32.852Z,100981.00
2018-08-17T06:57:02.615Z,100974.00
2018-08-17T06:59:32.370Z,100963.00
2018-08-17T07:02:02.412Z,100959.00
2018-08-17T07:04:32.425Z,100953.00
2018-08-17T07:07:02.532Z,100962.00
2018-08-17T07:09:32.583Z,100967.00
2018-08-17T07:12:02.718Z,100965.00
2018-08-17T07:14:32.795Z,100961.00
2018-08-17T07:17:02.593Z,100965.00
2018-08-17T07:19:33.359Z,100964.00
2018-08-17T07:22:04.300Z,100955.00
2018-08-17T07:24:34.100Z,100960.00
2018-08-17T07:27:04.029Z,100962.00
2018-08-17T07:29:33.946Z,100960.00
2018-08-17T07:32:03.915Z,100948.00
2018-08-17T07:34:33.853Z,100935.00
2018-08-17T07:37:03.747Z,100927.00
2018-08-17T07:39:33.777Z,100925.00
2018-08-17T07:42:03.720Z,100922.00
2018-08-17T07:44:33.697Z,100923.00
2018-08-17T07:47:03.640Z,100913.00
2018-08-17T07:49:33.623Z,100905.00
2018-08-17T07:52:03.496Z,100896.00
2018-08-17T07:54:33.670Z,100892.00
2018-08-17T07:57:03.721Z,100897.00
2018-08-17T07:59:33.756Z,100902.00
2018-08-17T08:02:03.901Z,100897.00
2018-08-17T08:04:34.017Z,100894.00
2018-08-17T08:07:04.213Z,100891.00
2018-08-17T08:09:34.165Z,100885.00
2018-08-17T08:12:04.181Z,100889.00
2018-08-17T08:14:34.172Z,100880.00
2018-08-17T08:17:03.949Z,100892.00
2018-08-17T08:19:33.739Z,100893.00
2018-08-17T08:22:04.387Z,100888.00
2018-08-17T08:29:37.661Z,100898.00
2018-08-17T08:32:07.625Z,100898.00
2018-08-17T08:34:37.747Z,100891.00
2018-08-17T08:37:07.901Z,100894.00
2018-08-17T08:39:37.926Z,100901.00
2018-08-17T08:42:07.920Z,100907.00
2018-08-17T08:44:37.867Z,100917.00
2018-08-17T08:47:07.980Z,100917.00
2018-08-17T08:49:38.036Z,100928.00
2018-08-17T08:52:08.126Z,100932.00
2018-08-17T08:54:38.125Z,100940.00
2018-08-17T08:57:08.211Z,100957.00
2018-08-17T08:59:37.920Z,100963.00
2018-08-17T09:02:07.943Z,100966.00
2018-08-17T09:04:37.801Z,100971.00
2018-08-17T09:07:08.074Z,100975.00
2018-08-17T09:09:38.006Z,100977.00
2018-08-17T09:12:07.985Z,100975.00
2018-08-17T09:14:37.940Z,100976.00
2018-08-17T09:17:07.924Z,100978.00
2018-08-17T09:19:37.935Z,100978.00
2018-08-17T09:22:08.079Z,100980.00
2018-08-17T09:24:38.164Z,100984.00
2018-08-17T09:27:08.125Z,100997.00
2018-08-17T09:29:38.277Z,100996.00
2018-08-17T09:37:02.770Z,100999.00
2018-08-17T09:39:32.781Z,100997.00
2018-08-17T09:42:02.874Z,101005.00
2018-08-17T09:44:33.113Z,101000.00
2018-08-17T09:47:03.262Z,101000.00
2018-08-17T09:49:33.224Z,100999.00
2018-08-17T09:52:03.187Z,100996.00
2018-08-17T09:54:33.389Z,101000.00
2018-08-17T09:57:03.319Z,101002.00
2018-08-17T09:59:33.316Z,100999.00
2018-08-17T10:02:09.967Z,100999.00
2018-08-17T10:05:44.007Z,101002.00
2018-08-17T10:09:20.203Z,100998.00
2018-08-17T10:11:51.659Z,101006.00
2018-08-17T10:14:21.860Z,101000.00
2018-08-17T10:16:51.943Z,100998.00
2018-08-17T10:19:21.907Z,101006.00
2018-08-17T10:21:53.437Z,100997.00
2018-08-17T10:24:23.784Z,100998.00
2018-08-17T10:26:55.110Z,101001.00
2018-08-17T10:29:25.142Z,101011.00
2018-08-17T10:31:55.118Z,101013.00
2018-08-17T10:34:25.095Z,101021.00
2018-08-17T10:36:54.971Z,101021.00
2018-08-17T10:39:24.938Z,101022.00
2018-08-17T10:41:55.004Z,101021.00
2018-08-17T10:44:24.885Z,101025.00
2018-08-17T10:46:55.098Z,101022.00
2018-08-17T10:49:25.347Z,101017.00
2018-08-17T10:51:58.096Z,101020.00
2018-08-17T10:54:27.986Z,101010.00
2018-08-17T10:56:57.939Z,101008.00
2018-08-17T10:59:27.836Z,101010.00
2018-08-17T11:01:57.820Z,101009.00
2018-08-17T11:04:27.841Z,101003.00
2018-08-17T11:06:57.797Z,101007.00
2018-08-17T11:09:27.524Z,101009.00
2018-08-17T11:11:57.811Z,101004.00
2018-08-17T11:19:20.122Z,101010.00
2018-08-17T11:21:50.147Z,101020.00
2018-08-17T11:24:20.220Z,101022.00
2018-08-17T11:26:50.311Z,101022.00
2018-08-17T11:29:20.168Z,101023.00
2018-08-17T11:31:53.114Z,101017.00
2018-08-17T11:34:23.051Z,101015.00
2018-08-17T11:36:53.005Z,101018.00
2018-08-17T11:39:22.979Z,101028.00
2018-08-17T11:41:53.012Z,101027.00
2018-08-17T11:44:22.971Z,101023.00
2018-08-17T11:46:52.946Z,101029.00
2018-08-17T11:49:23.150Z,101026.00
2018-08-17T11:51:53.189Z,101033.00
2018-08-17T11:54:23.177Z,101037.00
2018-08-17T11:56:52.978Z,101038.00
2018-08-17T11:59:22.986Z,101045.00
2018-08-17T12:01:53.362Z,101046.00
2018-08-17T12:04:23.384Z,101051.00
2018-08-17T12:06:53.688Z,101057.00
2018-08-17T12:09:23.835Z,101054.00
2018-08-17T12:11:54.927Z,101058.00
2018-08-17T12:14:24.831Z,101056.00
2018-08-17T12:16:54.911Z,101061.00
2018-08-17T12:19:24.963Z,101061.00
2018-08-17T12:21:54.769Z,101065.00
2018-08-17T12:24:24.799Z,101069.00
2018-08-17T12:26:54.687Z,101067.00
2018-08-17T12:29:24.703Z,101070.00
2018-08-17T12:31:54.642Z,101073.00
2018-08-17T12:34:24.606Z,101081.00
2018-08-17T12:36:54.627Z,101087.00
2018-08-17T12:39:24.941Z,101089.00
2018-08-17T12:41:55.189Z,101092.00
2018-08-17T12:44:25.193Z,101096.00
2018-08-17T12:46:55.220Z,101100.00
2018-08-17T12:49:25.356Z,101105.00
2018-08-17T12:51:55.525Z,101097.00
2018-08-17T12:54:30.674Z,101091.00
2018-08-17T12:57:01.518Z,101083.00
2018-08-17T12:59:32.205Z,101079.00
2018-08-17T13:02:02.272Z,101083.00
2018-08-17T13:04:32.278Z,101081.00
2018-08-17T13:07:02.319Z,101082.00
2018-08-17T13:09:32.449Z,101081.00
2018-08-17T13:12:02.785Z,101081.00
2018-08-17T13:14:32.806Z,101073.00
2018-08-17T13:17:02.579Z,101074.00
2018-08-17T13:19:32.581Z,101075.00
2018-08-17T13:22:02.703Z,101077.00
2018-08-17T13:24:33.749Z,101074.00
2018-08-17T13:27:04.870Z,101079.00
2018-08-17T13:29:36.060Z,101073.00
2018-08-17T13:32:06.195Z,101069.00
2018-08-17T13:34:36.234Z,101072.00
2018-08-17T13:37:06.399Z,101070.00
2018-08-17T13:39:36.715Z,101074.00
2018-08-17T13:42:07.013Z,101064.00
2018-08-17T13:44:37.138Z,101074.00
2018-08-17T13:47:07.312Z,101064.00
2018-08-17T13:49:37.371Z,101062.00
2018-08-17T13:52:07.627Z,101067.00
2018-08-17T13:54:37.815Z,101059.00
2018-08-17T13:57:07.917Z,101065.00
2018-08-17T13:59:37.886Z,101057.00
2018-08-17T14:02:08.340Z,101060.00
2018-08-17T14:04:38.655Z,101055.00
2018-08-17T14:07:08.754Z,101056.00
2018-08-17T14:09:39.013Z,101058.00
2018-08-17T14:12:10.070Z,101058.00
2018-08-17T14:14:39.901Z,101046.00
2018-08-17T14:17:09.981Z,101043.00
2018-08-17T14:19:40.087Z,101046.00
2018-08-17T14:22:10.117Z,101044.00
2018-08-17T14:24:40.308Z,101054.00
2018-08-17T14:27:10.609Z,101045.00
2018-08-17T14:29:40.640Z,101057.00
2018-08-17T14:32:10.637Z,101047.00
2018-08-17T14:34:40.771Z,101041.00
2018-08-17T14:37:10.960Z,101039.00
2018-08-17T14:39:41.052Z,101040.00
2018-08-17T14:42:11.295Z,101036.00
2018-08-17T14:44:41.389Z,101046.00
2018-08-17T14:47:11.414Z,101043.00
2018-08-17T14:49:41.532Z,101036.00
2018-08-17T14:52:11.621Z,101042.00
2018-08-17T14:54:41.674Z,101035.00
2018-08-17T14:57:11.967Z,101033.00
2018-08-17T14:59:42.009Z,101031.00
2018-08-17T15:02:11.989Z,101032.00
2018-08-17T15:04:42.061Z,101033.00
2018-08-17T15:07:12.265Z,101030.00
2018-08-17T15:09:42.263Z,101024.00
2018-08-17T15:12:12.532Z,101021.00
2018-08-17T15:14:42.576Z,101023.00
2018-08-17T15:17:12.635Z,101017.00
2018-08-17T15:19:42.809Z,101016.00
2018-08-17T15:22:13.180Z,101015.00
2018-08-17T15:24:43.345Z,101017.00
2018-08-17T15:27:13.540Z,101007.00
2018-08-17T15:29:43.665Z,101005.00
2018-08-17T15:32:13.888Z,101001.00
2018-08-17T15:34:44.031Z,101004.00
2018-08-17T15:37:14.143Z,101005.00
2018-08-17T15:39:44.264Z,100999.00
2018-08-17T15:42:14.714Z,100994.00
2018-08-17T15:44:44.910Z,100998.00
2018-08-17T15:47:16.899Z,100996.00
2018-08-17T15:50:06.874Z,100998.00
2018-08-17T15:52:36.914Z,100996.00
2018-08-17T15:55:06.978Z,100998.00
2018-08-17T15:57:37.089Z,101004.00
2018-08-17T16:00:09.859Z,101006.00
2018-08-17T16:02:39.845Z,101005.00
2018-08-17T16:05:09.830Z,101003.00
2018-08-17T16:07:39.961Z,101004.00
2018-08-17T16:10:13.145Z,101007.00
2018-08-17T16:12:43.108Z,101005.00
2018-08-17T16:15:13.216Z,101011.00
2018-08-17T16:17:43.362Z,101008.00
2018-08-17T16:20:13.857Z,101002.00
2018-08-17T16:22:44.504Z,100996.00
2018-08-17T16:25:15.443Z,100993.00
2018-08-17T16:27:46.388Z,100997.00
2018-08-17T16:30:17.568Z,100991.00
2018-08-17T16:32:47.710Z,100995.00
2018-08-17T16:35:17.779Z,101001.00
2018-08-17T16:37:48.797Z,100999.00
2018-08-17T16:40:18.782Z,100996.00
2018-08-17T16:42:52.088Z,100998.00
2018-08-17T16:45:22.848Z,101003.00
2018-08-17T16:47:52.934Z,101002.00
2018-08-17T16:50:23.075Z,101004.00
2018-08-17T16:52:53.303Z,101005.00
2018-08-17T16:55:26.219Z,101007.00
2018-08-17T16:57:56.418Z,101010.00
2018-08-17T17:00:26.603Z,101011.00
2018-08-17T17:02:56.665Z,101008.00
2018-08-17T17:05:26.844Z,101011.00
2018-08-17T17:07:57.886Z,101010.00
2018-08-17T17:10:31.282Z,101016.00
2018-08-17T17:13:01.228Z,101025.00
2018-08-17T17:15:31.374Z,101022.00
2018-08-17T17:18:08.272Z,101028.00
2018-08-17T17:20:39.689Z,101024.00
2018-08-17T17:23:11.235Z,101029.00
2018-08-17T17:25:41.774Z,101029.00
2018-08-17T17:28:11.667Z,101027.00
2018-08-17T17:30:47.496Z,101025.00
2018-08-17T17:33:17.700Z,101022.00
2018-08-17T17:35:48.367Z,101032.00
2018-08-17T17:38:18.540Z,101034.00
2018-08-17T17:40:48.773Z,101037.00
2018-08-17T17:43:18.994Z,101041.00
2018-08-17T17:45:49.127Z,101046.00
2018-08-17T17:48:19.237Z,101047.00
2018-08-17T17:50:49.264Z,101047.00
2018-08-17T17:53:19.715Z,101051.00
2018-08-17T17:55:50.866Z,101052.00
2018-08-17T17:58:22.074Z,101056.00
2018-08-17T18:00:59.679Z,101059.00
2018-08-17T18:03:32.146Z,101059.00
2018-08-17T18:06:06.155Z,101057.00
2018-08-17T18:08:37.688Z,101058.00
2018-08-17T18:11:08.548Z,101062.00
2018-08-17T18:13:38.803Z,101059.00
2018-08-17T18:16:10.292Z,101060.00
2018-08-17T18:18:40.855Z,101064.00
2018-08-17T18:21:11.661Z,101066.00
2018-08-17T18:23:42.160Z,101071.00
2018-08-17T18:26:18.925Z,101068.00
2018-08-17T18:28:49.063Z,101073.00
2018-08-17T18:31:19.424Z,101077.00
2018-08-17T18:33:49.849Z,101081.00
2018-08-17T18:36:22.479Z,101085.00
2018-08-17T18:38:54.349Z,101087.00
2018-08-17T18:41:26.594Z,101091.00
2018-08-17T18:43:59.272Z,101094.00
2018-08-17T18:46:31.624Z,101096.00
2018-08-17T18:49:03.723Z,101101.00
2018-08-17T18:51:34.559Z,101103.00
2018-08-17T18:54:05.249Z,101104.00
2018-08-17T18:56:37.607Z,101116.00
2018-08-17T18:59:08.883Z,101119.00
2018-08-17T19:01:39.366Z,101120.00
2018-08-17T19:04:09.702Z,101121.00
2018-08-17T19:06:39.874Z,101123.00
2018-08-17T19:09:10.350Z,101132.00
2018-08-17T19:11:40.425Z,101131.00
2018-08-17T19:14:10.723Z,101135.00
2018-08-17T19:16:42.761Z,101138.00
2018-08-17T19:19:14.468Z,101142.00
2018-08-17T19:21:45.896Z,101147.00
2018-08-17T19:24:16.152Z,101152.00
2018-08-17T19:26:46.454Z,101149.00
2018-08-17T19:29:18.195Z,101155.00
2018-08-17T19:31:53.870Z,101159.00
2018-08-17T19:34:28.438Z,101161.00
2018-08-17T19:37:00.151Z,101157.00
2018-08-17T19:39:33.746Z,101163.00
2018-08-17T19:42:04.346Z,101162.00
2018-08-17T19:44:34.400Z,101163.00
2018-08-17T19:47:04.635Z,101164.00
2018-08-17T19:49:34.877Z,101166.00
2018-08-17T19:52:05.171Z,101169.00
2018-08-17T19:54:35.332Z,101167.00
2018-08-17T19:57:05.881Z,101174.00
2018-08-17T19:59:36.078Z,101180.00
2018-08-17T20:02:06.127Z,101187.00
2018-08-17T20:04:36.209Z,101183.00
2018-08-17T20:07:06.470Z,101184.00
2018-08-17T20:09:36.531Z,101186.00
2018-08-17T20:12:06.891Z,101185.00
2018-08-17T20:14:37.138Z,101189.00
2018-08-17T20:17:07.755Z,101190.00
2018-08-17T20:19:43.027Z,101192.00
2018-08-17T20:22:19.363Z,101190.00
2018-08-17T20:24:49.762Z,101190.00
2018-08-17T20:27:20.892Z,101192.00
2018-08-17T20:29:51.286Z,101192.00
2018-08-17T20:32:21.681Z,101191.00
2018-08-17T20:34:51.979Z,101192.00
2018-08-17T20:37:23.550Z,101193.00
2018-08-17T20:39:54.373Z,101195.00
2018-08-17T20:42:24.709Z,101187.00
2018-08-17T20:44:54.624Z,101198.00
2018-08-17T20:47:24.494Z,101171.00
2018-08-17T20:49:55.741Z,101202.00
2018-08-17T20:52:26.109Z,101206.00
2018-08-17T20:54:57.001Z,101201.00
2018-08-17T20:57:27.487Z,101207.00
2018-08-17T20:59:57.566Z,101207.00
2018-08-17T21:02:27.952Z,101203.00
2018-08-17T21:04:58.704Z,101204.00
2018-08-17T21:07:29.706Z,101209.00
2018-08-17T21:09:59.856Z,101208.00
2018-08-17T21:12:29.631Z,101210.00
2018-08-17T21:14:59.804Z,101218.00
2018-08-17T21:17:29.848Z,101221.00
2018-08-17T21:20:00.020Z,101223.00
2018-08-17T21:22:30.363Z,101223.00
2018-08-17T21:25:00.573Z,101223.00
2018-08-17T21:27:31.698Z,101226.00
2018-08-17T21:30:04.951Z,101222.00
2018-08-17T21:32:36.695Z,101229.00
2018-08-17T21:35:07.937Z,101228.00
2018-08-17T21:37:38.239Z,101232.00
2018-08-17T21:40:16.812Z,101232.00
2018-08-17T21:42:47.699Z,101234.00
2018-08-17T21:45:17.953Z,101233.00
2018-08-17T21:47:47.963Z,101233.00
2018-08-17T21:50:19.274Z,101236.00
2018-08-17T21:52:49.831Z,101236.00
2018-08-17T21:55:19.969Z,101238.00
2018-08-17T21:57:49.832Z,101240.00
2018-08-17T22:00:36.887Z,101239.00
2018-08-17T22:03:17.628Z,101245.00
2018-08-17T22:05:47.664Z,101244.00
2018-08-17T22:08:17.811Z,101248.00
2018-08-17T22:10:47.864Z,101257.00
2018-08-17T22:13:32.325Z,101255.00
2018-08-17T22:16:02.888Z,101255.00
2018-08-17T22:18:33.533Z,101255.00
2018-08-17T22:21:03.656Z,101253.00
2018-08-17T22:23:33.697Z,101253.00
2018-08-17T22:26:03.714Z,101254.00
2018-08-17T22:28:34.407Z,101256.00
2018-08-17T22:31:05.088Z,101262.00
2018-08-17T22:33:34.932Z,101262.00
2018-08-17T22:36:08.283Z,101265.00
2018-08-17T22:38:42.393Z,101269.00
2018-08-17T22:41:12.478Z,101270.00
2018-08-17T22:43:42.599Z,101276.00
2018-08-17T22:46:12.650Z,101277.00
2018-08-17T22:48:42.910Z,101278.00
2018-08-17T22:51:12.781Z,101279.00
2018-08-17T22:53:43.711Z,101283.00
2018-08-17T22:56:13.630Z,101283.00
2018-08-17T22:58:48.467Z,101287.00
2018-08-17T23:01:20.274Z,101289.00
2018-08-17T23:03:55.056Z,101291.00
2018-08-17T23:06:26.449Z,101291.00
2018-08-17T23:08:56.402Z,101294.00
2018-08-17T23:11:34.047Z,101294.00
2018-08-17T23:14:08.179Z,101298.00
2018-08-17T23:16:38.245Z,101301.00
2018-08-17T23:19:08.478Z,101298.00
2018-08-17T23:21:38.759Z,101295.00
2018-08-17T23:24:09.190Z,101294.00
2018-08-17T23:26:39.303Z,101296.00
2018-08-17T23:29:09.252Z,101293.00
2018-08-17T23:31:39.122Z,101293.00
2018-08-17T23:34:08.912Z,101295.00
2018-08-17T23:36:38.804Z,101293.00
2018-08-17T23:39:10.611Z,101297.00
2018-08-17T23:41:40.723Z,101303.00
2018-08-17T23:44:10.448Z,101303.00
2018-08-17T23:46:40.435Z,101306.00
2018-08-17T23:49:10.092Z,101311.00
2018-08-17T23:51:39.934Z,101310.00
2018-08-17T23:54:10.603Z,101308.00
2018-08-17T23:56:40.632Z,101306.00
2018-08-17T23:59:10.594Z,101311.00
